Time,TemperatureF,DewpointF,PressureIn,WindDirection,WindDirectionDegrees,WindSpeedMPH,WindSpeedGustMPH,Humidity,HourlyPrecipIn,Conditions,Clouds,dailyrainin,SoftwareType,DateUTC
2013-09-10 00:05:00,70.5,69.3,30.14,SSE,161,0.0,0.0,96,0.00,,,0.00,Wunderground v.1.15,2013-09-10 04:05:00,
2013-09-10 00:10:00,70.4,69.2,30.14,SSE,161,0.0,0.0,96,0.00,,,0.00,Wunderground v.1.15,2013-09-10 04:10:00,
2013-09-10 00:15:00,70.4,69.2,30.14,SSE,161,0.0,0.0,96,0.00,,,0.00,Wunderground v.1.15,2013-09-10 04:15:00,
2013-09-10 00:20:00,70.4,69.2,30.14,SSE,161,0.0,0.0,96,0.00,,,0.00,Wunderground v.1.15,2013-09-10 04:20:00,
2013-09-10 00:25:00,70.4,69.2,30.15,SSE,161,0.0,0.0,96,0.00,,,0.00,Wunderground v.1.15,2013-09-10 04:25:00,
2013-09-10 00:30:00,70.5,69.3,30.15,SSE,161,0.0,0.0,96,0.00,,,0.00,Wunderground v.1.15,2013-09-10 04:30:00,
2013-09-10 00:35:00,70.4,69.2,30.15,SSE,161,0.0,0.0,96,0.00,,,0.00,Wunderground v.1.15,2013-09-10 04:35:00,
2013-09-10 00:40:00,70.4,69.2,30.15,SSE,161,0.0,0.0,96,0.00,,,0.00,Wunderground v.1.15,2013-09-10 04:40:00,
2013-09-10 00:45:00,70.4,69.2,30.15,SSE,161,0.0,0.0,96,0.00,,,0.00,Wunderground v.1.15,2013-09-10 04:45:00,
2013-09-10 00:50:00,70.4,69.2,30.15,SSE,161,0.0,0.0,96,0.00,,,0.00,Wunderground v.1.15,2013-09-10 04:50:00,
2013-09-10 00:55:00,70.4,69.2,30.15,SSE,161,0.0,0.0,96,0.00,,,0.00,Wunderground v.1.15,2013-09-10 04:55:00,
2013-09-10 01:00:00,70.4,69.2,30.15,SSE,161,0.0,0.0,96,0.00,,,0.00,Wunderground v.1.15,2013-09-10 05:00:00,
2013-09-10 01:10:00,70.1,68.9,30.15,SSE,161,0.0,0.0,96,0.00,,,0.00,Wunderground v.1.15,2013-09-10 05:10:00,
2013-09-10 01:15:00,70.1,68.9,30.15,SSE,161,0.0,0.0,96,0.00,,,0.00,Wunderground v.1.15,2013-09-10 05:15:00,
2013-09-10 01:20:00,70.0,68.8,30.15,SSE,161,0.0,0.0,96,0.00,,,0.00,Wunderground v.1.15,2013-09-10 05:20:00,
2013-09-10 01:25:00,69.9,68.7,30.16,SSE,161,0.0,0.0,96,0.00,,,0.00,Wunderground v.1.15,2013-09-10 05:25:00,
2013-09-10 01:30:00,69.8,68.6,30.16,SSE,161,0.0,0.0,96,0.00,,,0.00,Wunderground v.1.15,2013-09-10 05:30:00,
2013-09-10 01:35:00,69.7,68.8,30.16,SSE,161,0.0,0.0,97,0.00,,,0.00,Wunderground v.1.15,2013-09-10 05:35:00,
2013-09-10 01:40:00,69.6,68.4,30.16,SSE,161,0.0,0.0,96,0.00,,,0.00,Wunderground v.1.15,2013-09-10 05:40:00,
2013-09-10 01:45:00,69.6,68.4,30.16,SSE,161,0.0,0.0,96,0.00,,,0.00,Wunderground v.1.15,2013-09-10 05:45:00,
2013-09-10 01:55:00,69.4,68.5,30.16,SSE,161,0.0,0.0,97,0.00,,,0.00,Wunderground v.1.15,2013-09-10 05:55:00,
2013-09-10 02:05:00,69.3,68.4,30.16,SSE,161,0.0,0.0,97,0.00,,,0.00,Wunderground v.1.15,2013-09-10 06:05:00,
2013-09-10 02:10:00,69.3,68.4,30.16,SSE,161,0.0,0.0,97,0.00,,,0.00,Wunderground v.1.15,2013-09-10 06:10:00,
2013-09-10 02:15:00,69.2,68.3,30.17,SSE,161,0.0,0.0,97,0.00,,,0.00,Wunderground v.1.15,2013-09-10 06:15:00,
2013-09-10 02:25:00,69.3,68.4,30.17,SSE,161,0.0,0.0,97,0.00,,,0.00,Wunderground v.1.15,2013-09-10 06:25:00,
2013-09-10 02:30:00,69.2,68.3,30.17,SSE,161,0.0,0.0,97,0.00,,,0.00,Wunderground v.1.15,2013-09-10 06:30:00,
2013-09-10 02:35:00,69.1,68.2,30.17,SSE,161,0.0,0.0,97,0.00,,,0.00,Wunderground v.1.15,2013-09-10 06:35:00,
2013-09-10 02:40:00,69.0,68.1,30.17,SSE,161,0.0,0.0,97,0.00,,,0.00,Wunderground v.1.15,2013-09-10 06:40:00,
2013-09-10 02:45:00,68.9,68.0,30.17,SSE,161,0.0,0.0,97,0.00,,,0.00,Wunderground v.1.15,2013-09-10 06:45:00,
2013-09-10 02:55:00,68.7,67.8,30.17,SSE,161,0.0,0.0,97,0.00,,,0.00,Wunderground v.1.15,2013-09-10 06:55:00,
2013-09-10 03:00:00,68.8,67.9,30.17,SSE,161,0.0,0.0,97,0.00,,,0.00,Wunderground v.1.15,2013-09-10 07:00:00,
2013-09-10 03:05:00,68.8,67.9,30.16,SSE,161,0.0,0.0,97,0.00,,,0.00,Wunderground v.1.15,2013-09-10 07:05:00,
2013-09-10 03:10:00,68.8,67.9,30.16,SSE,161,0.0,0.0,97,0.00,,,0.00,Wunderground v.1.15,2013-09-10 07:10:00,
2013-09-10 03:15:00,68.8,67.9,30.17,SSE,161,0.0,0.0,97,0.00,,,0.00,Wunderground v.1.15,2013-09-10 07:15:00,
2013-09-10 03:25:00,68.7,67.8,30.17,SSE,161,0.0,0.0,97,0.00,,,0.00,Wunderground v.1.15,2013-09-10 07:25:00,
2013-09-10 03:30:00,68.6,67.7,30.17,SSE,161,0.0,0.0,97,0.00,,,0.00,Wunderground v.1.15,2013-09-10 07:30:00,
2013-09-10 03:35:00,68.3,67.4,30.17,SSE,161,0.0,0.0,97,0.00,,,0.00,Wunderground v.1.15,2013-09-10 07:35:00,
2013-09-10 03:40:00,68.1,67.2,30.17,SSE,161,0.0,0.0,97,0.00,,,0.00,Wunderground v.1.15,2013-09-10 07:40:00,
2013-09-10 03:50:00,68.1,67.2,30.17,SSE,161,0.0,0.0,97,0.00,,,0.00,Wunderground v.1.15,2013-09-10 07:50:00,
2013-09-10 04:00:00,68.1,67.2,30.17,SSE,161,0.0,0.0,97,0.00,,,0.00,Wunderground v.1.15,2013-09-10 08:00:00,
2013-09-10 04:05:00,68.1,67.5,30.17,SSE,161,0.0,0.0,98,0.00,,,0.00,Wunderground v.1.15,2013-09-10 08:05:00,
2013-09-10 04:10:00,68.1,67.5,30.17,SSE,161,0.0,0.0,98,0.00,,,0.00,Wunderground v.1.15,2013-09-10 08:10:00,
2013-09-10 04:15:00,68.1,67.5,30.17,SSE,161,0.0,0.0,98,0.00,,,0.00,Wunderground v.1.15,2013-09-10 08:15:00,
2013-09-10 04:25:00,67.9,67.3,30.17,SSE,161,0.0,0.0,98,0.00,,,0.00,Wunderground v.1.15,2013-09-10 08:25:00,
2013-09-10 04:30:00,67.8,67.2,30.17,SSE,161,0.0,0.0,98,0.00,,,0.00,Wunderground v.1.15,2013-09-10 08:30:00,
2013-09-10 04:40:00,67.6,66.7,30.17,SSE,161,0.0,0.0,97,0.00,,,0.00,Wunderground v.1.15,2013-09-10 08:40:00,
2013-09-10 04:45:00,67.5,66.9,30.17,SSE,161,0.0,0.0,98,0.00,,,0.00,Wunderground v.1.15,2013-09-10 08:45:00,
2013-09-10 04:55:00,67.4,66.8,30.17,SSE,161,0.0,0.0,98,0.00,,,0.00,Wunderground v.1.15,2013-09-10 08:55:00,
2013-09-10 05:00:00,67.3,66.7,30.18,SSE,161,0.0,0.0,98,0.00,,,0.00,Wunderground v.1.15,2013-09-10 09:00:00,
2013-09-10 05:10:00,67.2,66.6,30.18,SSE,161,0.0,0.0,98,0.00,,,0.00,Wunderground v.1.15,2013-09-10 09:10:00,
2013-09-10 05:15:00,67.1,66.5,30.18,SSE,161,0.0,0.0,98,0.00,,,0.00,Wunderground v.1.15,2013-09-10 09:15:00,
2013-09-10 05:20:00,67.2,66.6,30.18,SSE,161,0.0,0.0,98,0.00,,,0.00,Wunderground v.1.15,2013-09-10 09:20:00,
2013-09-10 05:25:00,67.1,66.5,30.18,SSE,161,0.0,0.0,98,0.00,,,0.00,Wunderground v.1.15,2013-09-10 09:25:00,
2013-09-10 05:30:00,66.9,66.3,30.18,SSE,161,0.0,0.0,98,0.00,,,0.00,Wunderground v.1.15,2013-09-10 09:30:00,
2013-09-10 05:40:00,66.8,66.2,30.18,SSE,161,0.0,0.0,98,0.00,,,0.00,Wunderground v.1.15,2013-09-10 09:40:00,
2013-09-10 05:45:00,66.7,66.1,30.18,SSE,161,0.0,0.0,98,0.00,,,0.00,Wunderground v.1.15,2013-09-10 09:45:00,
2013-09-10 05:55:00,66.7,66.1,30.18,SSE,161,0.0,0.0,98,0.00,,,0.00,Wunderground v.1.15,2013-09-10 09:55:00,
2013-09-10 06:00:00,66.7,66.1,30.19,SSE,161,0.0,0.0,98,0.00,,,0.00,Wunderground v.1.15,2013-09-10 10:00:00,
2013-09-10 06:10:00,66.5,65.9,30.19,SSE,161,0.0,0.0,98,0.00,,,0.00,Wunderground v.1.15,2013-09-10 10:10:00,
2013-09-10 06:15:00,66.3,65.7,30.19,SSE,161,0.0,0.0,98,0.00,,,0.00,Wunderground v.1.15,2013-09-10 10:15:00,
2013-09-10 06:20:00,66.3,65.7,30.19,SSE,161,0.0,0.0,98,0.00,,,0.00,Wunderground v.1.15,2013-09-10 10:20:00,
2013-09-10 06:25:00,66.2,65.6,30.19,SSE,161,0.0,0.0,98,0.00,,,0.00,Wunderground v.1.15,2013-09-10 10:25:00,
2013-09-10 06:30:00,66.1,65.5,30.19,SSE,161,0.0,0.0,98,0.00,,,0.00,Wunderground v.1.15,2013-09-10 10:30:00,
2013-09-10 06:40:00,65.9,65.3,30.20,SSE,161,0.0,0.0,98,0.00,,,0.00,Wunderground v.1.15,2013-09-10 10:40:00,
2013-09-10 06:45:00,65.8,65.2,30.20,SSE,161,0.0,0.0,98,0.00,,,0.00,Wunderground v.1.15,2013-09-10 10:45:00,
2013-09-10 06:55:00,65.7,65.1,30.20,SSE,161,0.0,0.0,98,0.00,,,0.00,Wunderground v.1.15,2013-09-10 10:55:00,
2013-09-10 07:00:00,65.6,65.0,30.20,SSE,161,0.0,0.0,98,0.00,,,0.00,Wunderground v.1.15,2013-09-10 11:00:00,
2013-09-10 07:10:00,65.6,65.0,30.20,SSE,161,0.0,0.0,98,0.00,,,0.00,Wunderground v.1.15,2013-09-10 11:10:00,
2013-09-10 07:15:00,65.5,64.9,30.21,SSE,161,0.0,0.0,98,0.00,,,0.00,Wunderground v.1.15,2013-09-10 11:15:00,
2013-09-10 07:20:00,65.5,64.9,30.21,SSE,161,0.0,0.0,98,0.00,,,0.00,Wunderground v.1.15,2013-09-10 11:20:00,
2013-09-10 07:25:00,65.5,64.9,30.21,SSE,161,0.0,0.0,98,0.00,,,0.00,Wunderground v.1.15,2013-09-10 11:25:00,
2013-09-10 07:35:00,65.6,65.0,30.22,SSE,161,0.0,0.0,98,0.00,,,0.00,Wunderground v.1.15,2013-09-10 11:35:00,
2013-09-10 07:45:00,65.9,65.3,30.22,SSE,161,0.0,0.0,98,0.00,,,0.00,Wunderground v.1.15,2013-09-10 11:45:00,
2013-09-10 07:50:00,66.1,65.5,30.22,SSE,161,0.0,0.0,98,0.00,,,0.00,Wunderground v.1.15,2013-09-10 11:50:00,
2013-09-10 07:55:00,66.4,65.8,30.22,SSE,161,0.0,0.0,98,0.00,,,0.00,Wunderground v.1.15,2013-09-10 11:55:00,
2013-09-10 08:00:00,66.9,66.3,30.22,SSE,161,0.0,0.0,98,0.00,,,0.00,Wunderground v.1.15,2013-09-10 12:00:00,
2013-09-10 08:10:00,67.8,67.2,30.22,SSE,161,0.0,0.0,98,0.00,,,0.00,Wunderground v.1.15,2013-09-10 12:10:00,
2013-09-10 08:15:00,68.5,67.9,30.22,SSE,161,0.0,0.0,98,0.00,,,0.00,Wunderground v.1.15,2013-09-10 12:15:00,
2013-09-10 08:20:00,69.4,69.1,30.22,SSE,161,0.0,0.0,99,0.00,,,0.00,Wunderground v.1.15,2013-09-10 12:20:00,
2013-09-10 08:25:00,69.8,69.2,30.22,SSE,161,0.0,0.0,98,0.00,,,0.00,Wunderground v.1.15,2013-09-10 12:25:00,
2013-09-10 08:35:00,71.3,70.7,30.23,SSE,161,0.0,0.0,98,0.00,,,0.00,Wunderground v.1.15,2013-09-10 12:35:00,
2013-09-10 08:40:00,72.0,71.4,30.23,SSE,161,0.0,1.0,98,0.00,,,0.00,Wunderground v.1.15,2013-09-10 12:40:00,
2013-09-10 08:45:00,72.3,71.4,30.23,SSE,161,0.0,1.0,97,0.00,,,0.00,Wunderground v.1.15,2013-09-10 12:45:00,
2013-09-10 08:50:00,72.9,71.7,30.23,SSE,161,0.0,2.0,96,0.00,,,0.00,Wunderground v.1.15,2013-09-10 12:50:00,
2013-09-10 08:55:00,73.5,72.0,30.23,SSE,153,1.0,2.0,95,0.00,,,0.00,Wunderground v.1.15,2013-09-10 12:55:00,
2013-09-10 09:00:00,74.0,72.2,30.24,SSE,153,2.0,2.0,94,0.00,,,0.00,Wunderground v.1.15,2013-09-10 13:00:00,
2013-09-10 09:10:00,74.3,71.8,30.24,SE,129,1.0,1.0,92,0.00,,,0.00,Wunderground v.1.15,2013-09-10 13:10:00,
2013-09-10 09:15:00,74.2,71.7,30.24,ESE,119,2.0,2.0,92,0.00,,,0.00,Wunderground v.1.15,2013-09-10 13:15:00,
2013-09-10 09:25:00,74.7,71.9,30.24,ENE,69,1.0,1.0,91,0.00,,,0.00,Wunderground v.1.15,2013-09-10 13:25:00,
2013-09-10 09:30:00,75.2,72.1,30.25,ESE,107,2.0,2.0,90,0.00,,,0.00,Wunderground v.1.15,2013-09-10 13:30:00,
2013-09-10 09:40:00,76.1,72.3,30.25,SE,126,3.0,3.0,88,0.00,,,0.00,Wunderground v.1.15,2013-09-10 13:40:00,
2013-09-10 09:45:00,76.5,72.3,30.25,SE,146,3.0,4.0,87,0.00,,,0.00,Wunderground v.1.15,2013-09-10 13:45:00,
2013-09-10 09:50:00,76.7,72.5,30.25,SE,128,4.0,4.0,87,0.00,,,0.00,Wunderground v.1.15,2013-09-10 13:50:00,
2013-09-10 09:55:00,76.8,73.0,30.25,ESE,112,4.0,4.0,88,0.00,,,0.00,Wunderground v.1.15,2013-09-10 13:55:00,
2013-09-10 10:00:00,77.1,72.9,30.25,East,96,3.0,3.0,87,0.00,,,0.00,Wunderground v.1.15,2013-09-10 14:00:00,
2013-09-10 10:10:00,78.4,73.5,30.26,SE,129,3.0,4.0,85,0.00,,,0.00,Wunderground v.1.15,2013-09-10 14:10:00,
2013-09-10 10:15:00,78.6,73.0,30.26,SE,130,3.0,4.0,83,0.00,,,0.00,Wunderground v.1.15,2013-09-10 14:15:00,
2013-09-10 10:20:00,78.7,73.1,30.26,SE,141,3.0,3.0,83,0.00,,,0.00,Wunderground v.1.15,2013-09-10 14:20:00,
2013-09-10 10:30:00,79.3,72.2,30.26,ESE,119,3.0,3.0,79,0.00,,,0.00,Wunderground v.1.15,2013-09-10 14:30:00,
2013-09-10 10:40:00,79.9,72.0,30.25,NE,50,3.0,4.0,77,0.00,,,0.00,Wunderground v.1.15,2013-09-10 14:40:00,
2013-09-10 10:45:00,80.4,72.5,30.26,ENE,66,2.0,4.0,77,0.00,,,0.00,Wunderground v.1.15,2013-09-10 14:45:00,
2013-09-10 10:50:00,80.4,72.5,30.25,ESE,122,3.0,3.0,77,0.00,,,0.00,Wunderground v.1.15,2013-09-10 14:50:00,
2013-09-10 10:55:00,80.5,72.6,30.25,SE,132,3.0,3.0,77,0.00,,,0.00,Wunderground v.1.15,2013-09-10 14:55:00,
2013-09-10 11:00:00,81.0,72.7,30.25,NE,56,3.0,3.0,76,0.00,,,0.00,Wunderground v.1.15,2013-09-10 15:00:00,
2013-09-10 11:10:00,81.6,72.9,30.25,NE,42,3.0,4.0,75,0.00,,,0.00,Wunderground v.1.15,2013-09-10 15:10:00,
2013-09-10 11:15:00,81.8,73.1,30.26,East,82,4.0,4.0,75,0.00,,,0.00,Wunderground v.1.15,2013-09-10 15:15:00,
2013-09-10 11:20:00,81.6,71.3,30.25,ESE,109,4.0,4.0,71,0.00,,,0.00,Wunderground v.1.15,2013-09-10 15:20:00,
2013-09-10 11:30:00,81.9,72.4,30.25,East,82,5.0,5.0,73,0.00,,,0.00,Wunderground v.1.15,2013-09-10 15:30:00,
2013-09-10 11:40:00,82.7,71.9,30.25,SE,130,4.0,4.0,70,0.00,,,0.00,Wunderground v.1.15,2013-09-10 15:40:00,
2013-09-10 11:45:00,82.7,71.9,30.25,NE,51,4.0,4.0,70,0.00,,,0.00,Wunderground v.1.15,2013-09-10 15:45:00,
2013-09-10 11:50:00,82.8,71.2,30.25,North,5,3.0,4.0,68,0.00,,,0.00,Wunderground v.1.15,2013-09-10 15:50:00,
2013-09-10 11:55:00,83.2,70.7,30.25,East,88,3.0,4.0,66,0.00,,,0.00,Wunderground v.1.15,2013-09-10 15:55:00,
2013-09-10 12:00:00,83.7,72.0,30.25,East,94,3.0,3.0,68,0.00,,,0.00,Wunderground v.1.15,2013-09-10 16:00:00,
2013-09-10 12:10:00,82.6,70.5,30.24,NE,44,4.0,4.0,67,0.00,,,0.00,Wunderground v.1.15,2013-09-10 16:10:00,
2013-09-10 12:15:00,83.2,71.1,30.24,South,171,4.0,4.0,67,0.00,,,0.00,Wunderground v.1.15,2013-09-10 16:15:00,
2013-09-10 12:25:00,82.9,70.8,30.24,ESE,119,3.0,7.0,67,0.00,,,0.00,Wunderground v.1.15,2013-09-10 16:25:00,
2013-09-10 12:30:00,83.1,70.1,30.24,SE,141,4.0,4.0,65,0.00,,,0.00,Wunderground v.1.15,2013-09-10 16:30:00,
2013-09-10 12:40:00,83.9,70.4,30.23,NE,53,4.0,5.0,64,0.00,,,0.00,Wunderground v.1.15,2013-09-10 16:40:00,
2013-09-10 12:45:00,83.9,70.4,30.23,ENE,57,4.0,5.0,64,0.00,,,0.00,Wunderground v.1.15,2013-09-10 16:45:00,
2013-09-10 12:55:00,84.1,72.0,30.23,SE,138,4.0,7.0,67,0.00,,,0.00,Wunderground v.1.15,2013-09-10 16:55:00,
2013-09-10 13:00:00,84.4,70.0,30.23,SE,125,5.0,5.0,62,0.00,,,0.00,Wunderground v.1.15,2013-09-10 17:00:00,
2013-09-10 13:05:00,84.5,70.5,30.23,ESE,119,5.0,5.0,63,0.00,,,0.00,Wunderground v.1.15,2013-09-10 17:05:00,
2013-09-10 13:10:00,84.8,70.8,30.23,SSE,148,4.0,4.0,63,0.00,,,0.00,Wunderground v.1.15,2013-09-10 17:10:00,
2013-09-10 13:20:00,85.0,70.0,30.23,SSW,192,3.0,3.0,61,0.00,,,0.00,Wunderground v.1.15,2013-09-10 17:20:00,
2013-09-10 13:30:00,84.8,69.9,30.23,North,11,3.0,4.0,61,0.00,,,0.00,Wunderground v.1.15,2013-09-10 17:30:00,
2013-09-10 13:35:00,85.2,70.2,30.22,South,171,4.0,4.0,61,0.00,,,0.00,Wunderground v.1.15,2013-09-10 17:35:00,
2013-09-10 13:40:00,85.3,69.3,30.22,ESE,122,5.0,5.0,59,0.00,,,0.00,Wunderground v.1.15,2013-09-10 17:40:00,
2013-09-10 13:45:00,85.3,70.8,30.22,East,91,4.0,5.0,62,0.00,,,0.00,Wunderground v.1.15,2013-09-10 17:45:00,
2013-09-10 13:55:00,85.7,69.2,30.22,SSE,150,5.0,6.0,58,0.00,,,0.00,Wunderground v.1.15,2013-09-10 17:55:00,
2013-09-10 14:00:00,85.6,68.6,30.22,SE,130,5.0,5.0,57,0.00,,,0.00,Wunderground v.1.15,2013-09-10 18:00:00,
2013-09-10 14:05:00,85.2,69.3,30.21,ENE,70,5.0,5.0,59,0.00,,,0.00,Wunderground v.1.15,2013-09-10 18:05:00,
2013-09-10 14:10:00,85.6,68.6,30.22,East,84,5.0,5.0,57,0.00,,,0.00,Wunderground v.1.15,2013-09-10 18:10:00,
2013-09-10 14:20:00,85.6,68.6,30.21,ENE,63,4.0,4.0,57,0.00,,,0.00,Wunderground v.1.15,2013-09-10 18:20:00,
2013-09-10 14:25:00,85.7,69.7,30.21,East,89,3.0,4.0,59,0.00,,,0.00,Wunderground v.1.15,2013-09-10 18:25:00,
2013-09-10 14:30:00,86.5,69.5,30.21,East,96,2.0,6.0,57,0.00,,,0.00,Wunderground v.1.15,2013-09-10 18:30:00,
2013-09-10 14:35:00,85.8,69.3,30.21,SE,125,4.0,6.0,58,0.00,,,0.00,Wunderground v.1.15,2013-09-10 18:35:00,
2013-09-10 14:40:00,86.1,69.6,30.21,NE,34,3.0,3.0,58,0.00,,,0.00,Wunderground v.1.15,2013-09-10 18:40:00,
2013-09-10 14:45:00,86.9,69.8,30.20,SE,125,2.0,10.0,57,0.00,,,0.00,Wunderground v.1.15,2013-09-10 18:45:00,
2013-09-10 14:55:00,86.3,69.3,30.20,SE,128,5.0,7.0,57,0.00,,,0.00,Wunderground v.1.15,2013-09-10 18:55:00,
2013-09-10 15:00:00,86.6,69.0,30.20,SSE,162,5.0,5.0,56,0.00,,,0.00,Wunderground v.1.15,2013-09-10 19:00:00,
2013-09-10 15:05:00,87.0,69.4,30.20,SE,128,4.0,6.0,56,0.00,,,0.00,Wunderground v.1.15,2013-09-10 19:05:00,
2013-09-10 15:15:00,87.1,69.5,30.19,East,98,4.0,4.0,56,0.00,,,0.00,Wunderground v.1.15,2013-09-10 19:15:00,
2013-09-10 15:25:00,87.1,70.0,30.19,NNE,17,5.0,5.0,57,0.00,,,0.00,Wunderground v.1.15,2013-09-10 19:25:00,
2013-09-10 15:30:00,87.1,70.0,30.19,ESE,119,4.0,8.0,57,0.00,,,0.00,Wunderground v.1.15,2013-09-10 19:30:00,
2013-09-10 15:35:00,86.1,68.6,30.19,ESE,118,4.0,8.0,56,0.00,,,0.00,Wunderground v.1.15,2013-09-10 19:35:00,
2013-09-10 15:40:00,86.3,69.8,30.18,SE,134,3.0,3.0,58,0.00,,,0.00,Wunderground v.1.15,2013-09-10 19:40:00,
2013-09-10 15:45:00,86.9,69.3,30.18,SE,136,4.0,6.0,56,0.00,,,0.00,Wunderground v.1.15,2013-09-10 19:45:00,
2013-09-10 15:55:00,87.0,68.3,30.18,South,173,5.0,5.0,54,0.00,,,0.00,Wunderground v.1.15,2013-09-10 19:55:00,
2013-09-10 16:00:00,87.0,69.9,30.17,SSE,157,4.0,4.0,57,0.00,,,0.00,Wunderground v.1.15,2013-09-10 20:00:00,
2013-09-10 16:05:00,87.0,69.9,30.17,East,87,3.0,5.0,57,0.00,,,0.00,Wunderground v.1.15,2013-09-10 20:05:00,
2013-09-10 16:15:00,87.2,69.6,30.17,ESE,113,4.0,6.0,56,0.00,,,0.00,Wunderground v.1.15,2013-09-10 20:15:00,
2013-09-10 16:25:00,87.3,69.7,30.17,SE,144,4.0,5.0,56,0.00,,,0.00,Wunderground v.1.15,2013-09-10 20:25:00,
2013-09-10 16:30:00,87.6,70.5,30.17,ESE,118,4.0,5.0,57,0.00,,,0.00,Wunderground v.1.15,2013-09-10 20:30:00,
2013-09-10 16:40:00,87.7,69.5,30.17,SE,131,4.0,6.0,55,0.00,,,0.00,Wunderground v.1.15,2013-09-10 20:40:00,
2013-09-10 16:45:00,87.6,69.4,30.17,East,94,3.0,6.0,55,0.00,,,0.00,Wunderground v.1.15,2013-09-10 20:45:00,
2013-09-10 16:50:00,87.1,70.0,30.17,East,99,4.0,4.0,57,0.00,,,0.00,Wunderground v.1.15,2013-09-10 20:50:00,
2013-09-10 16:55:00,87.1,70.0,30.17,NE,36,3.0,4.0,57,0.00,,,0.00,Wunderground v.1.15,2013-09-10 20:55:00,
2013-09-10 17:05:00,87.3,70.7,30.17,ENE,75,2.0,3.0,58,0.00,,,0.00,Wunderground v.1.15,2013-09-10 21:05:00,
2013-09-10 17:15:00,86.7,70.2,30.16,ENE,73,1.0,3.0,58,0.00,,,0.00,Wunderground v.1.15,2013-09-10 21:15:00,
2013-09-10 17:20:00,86.0,70.5,30.17,East,79,2.0,2.0,60,0.00,,,0.00,Wunderground v.1.15,2013-09-10 21:20:00,
2013-09-10 17:25:00,85.7,69.7,30.17,ENE,57,2.0,4.0,59,0.00,,,0.00,Wunderground v.1.15,2013-09-10 21:25:00,
2013-09-10 17:30:00,85.6,70.1,30.16,SE,130,2.0,4.0,60,0.00,,,0.00,Wunderground v.1.15,2013-09-10 21:30:00,
2013-09-10 17:40:00,86.2,69.7,30.16,ESE,114,2.0,2.0,58,0.00,,,0.00,Wunderground v.1.15,2013-09-10 21:40:00,
2013-09-10 17:45:00,86.4,69.4,30.16,SE,124,2.0,2.0,57,0.00,,,0.00,Wunderground v.1.15,2013-09-10 21:45:00,
2013-09-10 17:50:00,86.6,70.6,30.16,East,90,3.0,6.0,59,0.00,,,0.00,Wunderground v.1.15,2013-09-10 21:50:00,
2013-09-10 17:55:00,86.5,70.5,30.16,East,101,3.0,6.0,59,0.00,,,0.00,Wunderground v.1.15,2013-09-10 21:55:00,
2013-09-10 18:05:00,86.5,70.5,30.16,SE,131,2.0,4.0,59,0.00,,,0.00,Wunderground v.1.15,2013-09-10 22:05:00,
2013-09-10 18:10:00,86.1,70.1,30.16,SE,126,2.0,2.0,59,0.00,,,0.00,Wunderground v.1.15,2013-09-10 22:10:00,
2013-09-10 18:15:00,86.0,69.5,30.16,ESE,121,3.0,3.0,58,0.00,,,0.00,Wunderground v.1.15,2013-09-10 22:15:00,
2013-09-10 18:20:00,86.0,69.5,30.16,SE,133,3.0,3.0,58,0.00,,,0.00,Wunderground v.1.15,2013-09-10 22:20:00,
2013-09-10 18:25:00,86.1,70.1,30.16,ENE,65,2.0,3.0,59,0.00,,,0.00,Wunderground v.1.15,2013-09-10 22:25:00,
2013-09-10 18:30:00,86.1,70.1,30.16,ESE,109,1.0,1.0,59,0.00,,,0.00,Wunderground v.1.15,2013-09-10 22:30:00,
2013-09-10 18:35:00,85.9,70.4,30.16,NE,40,1.0,2.0,60,0.00,,,0.00,Wunderground v.1.15,2013-09-10 22:35:00,
2013-09-10 18:45:00,85.5,70.5,30.16,ENE,70,1.0,1.0,61,0.00,,,0.00,Wunderground v.1.15,2013-09-10 22:45:00,
2013-09-10 18:50:00,84.8,72.6,30.16,ENE,70,1.0,1.0,67,0.00,,,0.00,Wunderground v.1.15,2013-09-10 22:50:00,
2013-09-10 18:55:00,84.3,72.6,30.16,ENE,70,0.0,1.0,68,0.00,,,0.00,Wunderground v.1.15,2013-09-10 22:55:00,
2013-09-10 19:05:00,82.8,72.4,30.16,ENE,69,0.0,0.0,71,0.00,,,0.00,Wunderground v.1.15,2013-09-10 23:05:00,
2013-09-10 19:10:00,81.7,72.6,30.16,ENE,69,0.0,0.0,74,0.00,,,0.00,Wunderground v.1.15,2013-09-10 23:10:00,
2013-09-10 19:15:00,80.9,72.6,30.17,ENE,69,0.0,0.0,76,0.00,,,0.00,Wunderground v.1.15,2013-09-10 23:15:00,
2013-09-10 19:25:00,79.6,72.9,30.17,ENE,69,0.0,0.0,80,0.00,,,0.00,Wunderground v.1.15,2013-09-10 23:25:00,
2013-09-10 19:30:00,79.0,72.7,30.17,ENE,69,0.0,0.0,81,0.00,,,0.00,Wunderground v.1.15,2013-09-10 23:30:00,
2013-09-10 19:35:00,78.5,72.2,30.17,ENE,69,0.0,0.0,81,0.00,,,0.00,Wunderground v.1.15,2013-09-10 23:35:00,
2013-09-10 19:40:00,77.9,72.3,30.18,ENE,69,0.0,0.0,83,0.00,,,0.00,Wunderground v.1.15,2013-09-10 23:40:00,
2013-09-10 19:45:00,77.4,72.2,30.18,ENE,69,0.0,0.0,84,0.00,,,0.00,Wunderground v.1.15,2013-09-10 23:45:00,
2013-09-10 19:55:00,76.6,72.1,30.18,ENE,69,0.0,0.0,86,0.00,,,0.00,Wunderground v.1.15,2013-09-10 23:55:00,
2013-09-10 20:05:00,76.0,71.8,30.18,ENE,69,0.0,0.0,87,0.00,,,0.00,Wunderground v.1.15,2013-09-11 00:05:00,
2013-09-10 20:10:00,75.7,71.9,30.18,ENE,69,0.0,0.0,88,0.00,,,0.00,Wunderground v.1.15,2013-09-11 00:10:00,
2013-09-10 20:15:00,75.4,71.9,30.18,ENE,69,0.0,0.0,89,0.00,,,0.00,Wunderground v.1.15,2013-09-11 00:15:00,
2013-09-10 20:25:00,75.1,72.0,30.19,ENE,69,0.0,0.0,90,0.00,,,0.00,Wunderground v.1.15,2013-09-11 00:25:00,
2013-09-10 20:30:00,74.9,71.8,30.19,ENE,69,0.0,0.0,90,0.00,,,0.00,Wunderground v.1.15,2013-09-11 00:30:00,
2013-09-10 20:35:00,74.9,72.1,30.19,ENE,69,0.0,0.0,91,0.00,,,0.00,Wunderground v.1.15,2013-09-11 00:35:00,
2013-09-10 20:40:00,74.7,71.9,30.20,ENE,69,0.0,0.0,91,0.00,,,0.00,Wunderground v.1.15,2013-09-11 00:40:00,
2013-09-10 20:45:00,74.5,71.7,30.20,ENE,69,0.0,0.0,91,0.00,,,0.00,Wunderground v.1.15,2013-09-11 00:45:00,
2013-09-10 20:55:00,74.1,71.6,30.20,ENE,69,0.0,0.0,92,0.00,,,0.00,Wunderground v.1.15,2013-09-11 00:55:00,
2013-09-10 21:00:00,73.9,71.4,30.20,ENE,69,0.0,0.0,92,0.00,,,0.00,Wunderground v.1.15,2013-09-11 01:00:00,
2013-09-10 21:05:00,73.7,71.5,30.20,ENE,69,0.0,0.0,93,0.00,,,0.00,Wunderground v.1.15,2013-09-11 01:05:00,
2013-09-10 21:10:00,73.6,71.4,30.20,ENE,69,0.0,0.0,93,0.00,,,0.00,Wunderground v.1.15,2013-09-11 01:10:00,
2013-09-10 21:15:00,73.4,71.3,30.21,ENE,69,0.0,0.0,93,0.00,,,0.00,Wunderground v.1.15,2013-09-11 01:15:00,
2013-09-10 21:25:00,73.1,71.3,30.21,ENE,69,0.0,0.0,94,0.00,,,0.00,Wunderground v.1.15,2013-09-11 01:25:00,
2013-09-10 21:30:00,72.9,71.1,30.21,ENE,69,0.0,0.0,94,0.00,,,0.00,Wunderground v.1.15,2013-09-11 01:30:00,
2013-09-10 21:40:00,72.5,70.7,30.21,ENE,69,0.0,0.0,94,0.00,,,0.00,Wunderground v.1.15,2013-09-11 01:40:00,
2013-09-10 21:45:00,72.3,70.5,30.22,ENE,69,0.0,0.0,94,0.00,,,0.00,Wunderground v.1.15,2013-09-11 01:45:00,
2013-09-10 21:50:00,72.1,70.3,30.22,ENE,69,0.0,0.0,94,0.00,,,0.00,Wunderground v.1.15,2013-09-11 01:50:00,
2013-09-10 22:00:00,71.8,70.3,30.22,ENE,69,0.0,0.0,95,0.00,,,0.00,Wunderground v.1.15,2013-09-11 02:00:00,
2013-09-10 22:10:00,71.5,70.0,30.22,ENE,69,0.0,0.0,95,0.00,,,0.00,Wunderground v.1.15,2013-09-11 02:10:00,
2013-09-10 22:15:00,71.3,69.8,30.22,ENE,69,0.0,0.0,95,0.00,,,0.00,Wunderground v.1.15,2013-09-11 02:15:00,
2013-09-10 22:25:00,71.1,69.6,30.22,ENE,69,0.0,0.0,95,0.00,,,0.00,Wunderground v.1.15,2013-09-11 02:25:00,
2013-09-10 22:30:00,70.9,69.4,30.22,ENE,69,0.0,0.0,95,0.00,,,0.00,Wunderground v.1.15,2013-09-11 02:30:00,
2013-09-10 22:35:00,70.7,69.2,30.22,ENE,69,0.0,0.0,95,0.00,,,0.00,Wunderground v.1.15,2013-09-11 02:35:00,
2013-09-10 22:40:00,70.6,69.4,30.23,ENE,69,0.0,0.0,96,0.00,,,0.00,Wunderground v.1.15,2013-09-11 02:40:00,
2013-09-10 22:50:00,70.4,69.2,30.23,ENE,69,0.0,0.0,96,0.00,,,0.00,Wunderground v.1.15,2013-09-11 02:50:00,
2013-09-10 22:55:00,70.2,69.0,30.23,ENE,69,0.0,0.0,96,0.00,,,0.00,Wunderground v.1.15,2013-09-11 02:55:00,
2013-09-10 23:00:00,70.1,68.9,30.23,ENE,69,0.0,0.0,96,0.00,,,0.00,Wunderground v.1.15,2013-09-11 03:00:00,
2013-09-10 23:10:00,69.8,68.6,30.23,ENE,69,0.0,0.0,96,0.00,,,0.00,Wunderground v.1.15,2013-09-11 03:10:00,
2013-09-10 23:15:00,69.7,68.5,30.23,ENE,69,0.0,0.0,96,0.00,,,0.00,Wunderground v.1.15,2013-09-11 03:15:00,
2013-09-10 23:25:00,69.4,68.2,30.23,ENE,69,0.0,0.0,96,0.00,,,0.00,Wunderground v.1.15,2013-09-11 03:25:00,
2013-09-10 23:30:00,69.3,68.1,30.23,ENE,69,0.0,0.0,96,0.00,,,0.00,Wunderground v.1.15,2013-09-11 03:30:00,
2013-09-10 23:35:00,69.2,68.3,30.23,ENE,69,0.0,0.0,97,0.00,,,0.00,Wunderground v.1.15,2013-09-11 03:35:00,
2013-09-10 23:40:00,69.1,68.2,30.23,ENE,69,0.0,0.0,97,0.00,,,0.00,Wunderground v.1.15,2013-09-11 03:40:00,
2013-09-10 23:50:00,68.9,67.7,30.23,ENE,69,0.0,0.0,96,0.00,,,0.00,Wunderground v.1.15,2013-09-11 03:50:00,
2013-09-10 23:55:00,68.8,67.9,30.23,ENE,69,0.0,0.0,97,0.00,,,0.00,Wunderground v.1.15,2013-09-11 03:55:00,